Terminal Aerodrome Forecast
Issued by NWS

Home | Current Version | Previous Version | Text Only | Print | Product List | Glossary On
Versions: 1 2 3 4 5 6 7 8 9 10 11 12 13 14 15 16 17 18
683
FTUS43 KMQT 070522
TAFCMX
TAF
KCMX 070522Z 0706/0806 24015G22KT P6SM -SHSN OVC025
     FM070800 24017G26KT 5SM -SHSN OVC025
     FM071200 25019G28KT 2SM -SHSN BLSN OVC020
     FM071900 26020G32KT 1 1/2SM -SHSN BLSN OVC020
     FM080100 28018G28KT 1/2SM SHSN BLSN OVC015=

USA.gov is the U.S. government's official web portal to all federal, state and local government web resources and services.